Latest Weather Observations for Evans Head

IDN60801

Issued at 11:32 pm EDT Sunday 14 February 2016 (issued every 30 minutes, with the page automatically refreshed every 10 minutes)

About weather observations | Map of weather stations | Latest weather observations for NSW | Other Formats
Station Details ID: 058212 Name: EVANS HEAD RAAF BOMBING RANGE AWS Lat: -29.18 Lon: 153.40 Height: 62.5 m
Data from the previous 72 hours. | See also: Recent months at Evans Head
Date/Time
EDT
Temp
°C
App
Temp
°C
Dew
Point
Rel
Hum
%
Delta-T
°C
Wind Press
QNH
hPa
Press
MSL
hPa
Rain
since 9 am
mm
Dir
 
Spd
km/h
Gust
km/h
Spd
kts
Gust
kts
14/11:30pm 21.9 24.4 21.7 99 0.1 SW 11 13 6 7 1010.0 1009.7 0.0
14/11:00pm 21.8 24.2 21.5 98 0.2 WSW 11 13 6 7 1010.2 1009.9 0.0
14/10:30pm 22.0 25.2 21.7 98 0.2 SW 7 11 4 6 1010.2 1009.9 0.0
14/10:00pm 22.4 25.5 22.1 98 0.2 SSE 9 13 5 7 1010.2 1009.9 0.0
14/09:30pm 22.9 26.1 22.4 97 0.3 SSE 9 13 5 7 1010.1 1009.8 0.0
14/09:00pm 23.4 26.5 22.9 97 0.3 SSE 11 15 6 8 1009.9 1009.6 0.0
14/08:30pm 22.9 25.9 22.6 98 0.2 SSE 11 15 6 8 1009.6 1009.3 0.0
14/08:00pm 22.9 25.4 22.4 97 0.3 SSE 13 17 7 9 1009.3 1009.0 0.0
14/07:30pm 23.4 26.0 22.6 95 0.5 SSE 13 17 7 9 1008.9 1008.6 0.0
14/07:00pm 24.2 26.2 21.5 85 1.8 SSE 13 19 7 10 1008.6 1008.3 0.0
14/06:30pm 24.9 26.6 21.0 79 2.6 SSE 13 19 7 10 1008.4 1008.1 0.0
14/06:00pm 25.7 27.0 20.9 75 3.2 SSE 15 20 8 11 1008.4 1008.1 0.0
14/05:30pm 26.3 26.7 20.6 71 3.7 SSE 19 24 10 13 1008.5 1008.2 0.0
14/05:00pm 26.4 26.7 20.3 69 4.0 SSE 19 24 10 13 1008.6 1008.3 0.0
14/04:30pm 27.4 27.6 20.5 66 4.5 SSE 20 28 11 15 1008.5 1008.2 0.0
14/04:00pm 28.0 28.2 20.6 64 4.9 SSE 20 28 11 15 1008.6 1008.3 0.0
14/03:30pm 28.2 28.5 20.5 63 5.1 SSE 19 28 10 15 1008.4 1008.1 0.0
14/03:00pm 27.6 26.9 19.4 61 5.3 SSE 22 30 12 16 1008.4 1008.1 0.0
14/02:30pm 28.9 29.0 20.4 60 5.6 SSE 20 30 11 16 1008.5 1008.2 0.0
14/02:00pm 28.2 27.7 20.0 61 5.4 S 22 32 12 17 1008.7 1008.4 0.0
14/01:30pm 28.2 28.1 20.0 61 5.4 SSE 20 28 11 15 1009.0 1008.7 0.0
14/01:00pm 28.0 27.8 19.8 61 5.4 S 20 30 11 16 1009.2 1008.9 0.0
14/12:30pm 27.8 27.6 19.8 61 5.2 SSW 20 32 11 17 1009.6 1009.3 0.0
14/12:00pm 27.2 26.4 18.5 59 5.6 S 20 30 11 16 1010.0 1009.7 0.0
14/11:30am 27.6 27.0 19.7 62 5.1 S 22 30 12 16 1010.2 1009.9 0.0
14/11:00am 26.6 26.1 19.0 63 4.9 SSW 20 32 11 17 1010.1 1009.8 0.0
14/10:30am 26.6 26.1 19.0 63 4.9 S 20 30 11 16 1010.5 1010.2 0.0
14/10:00am 25.9 24.6 18.1 62 4.9 S 22 32 12 17 1010.4 1010.1 0.0
14/09:30am 25.2 24.6 18.9 68 4.0 SSW 20 28 11 15 1010.4 1010.1 0.0
14/09:00am 23.9 23.8 18.8 73 3.2 SW 17 24 9 13 1010.4 1010.1 0.0
14/08:30am 22.3 22.2 18.7 80 2.3 SW 17 26 9 14 1010.4 1010.1 0.0
14/08:00am 21.1 21.0 18.7 86 1.5 SW 17 26 9 14 1010.2 1009.9 0.0
14/07:30am 20.2 19.7 18.7 91 0.9 SW 19 28 10 15 1010.1 1009.8 0.0
14/07:00am 19.1 18.6 18.6 97 0.3 WSW 19 26 10 14 1010.0 1009.7 0.0
14/06:30am 19.2 19.1 18.7 97 0.3 SW 17 24 9 13 1009.9 1009.6 0.0
14/06:00am 19.1 18.9 18.6 97 0.3 SW 17 26 9 14 1009.6 1009.3 0.0
14/05:30am 19.1 18.9 18.6 97 0.3 WSW 17 26 9 14 1009.3 1009.0 0.0
14/05:00am 19.3 19.2 18.8 97 0.3 WSW 17 24 9 13 1009.3 1009.0 0.0
14/04:30am 19.4 19.4 18.9 97 0.3 SW 17 22 9 12 1009.5 1009.2 0.0
14/04:00am 19.4 19.8 18.9 97 0.3 WSW 15 22 8 12 1009.7 1009.4 0.0
14/03:30am 19.7 20.3 18.7 94 0.6 SW 13 19 7 10 1009.8 1009.5 0.0
14/03:00am 20.1 20.7 18.6 91 0.9 SW 13 19 7 10 1009.9 1009.6 0.0
14/02:30am 20.0 20.6 18.7 92 0.8 WSW 13 20 7 11 1010.1 1009.8 0.0
14/02:00am 20.0 20.3 18.7 92 0.8 WSW 15 20 8 11 1010.4 1010.1 0.0
14/01:30am 19.8 20.7 18.5 92 0.8 WSW 11 17 6 9 1010.9 1010.6 0.0
14/01:00am 20.5 21.8 18.4 88 1.3 SW 9 13 5 7 1011.2 1010.9 0.0
14/12:30am 22.1 23.2 18.9 82 2.0 SSE 11 19 6 10 1011.5 1011.2 0.0
14/12:00am 22.0 22.0 19.0 83 1.9 SSE 17 20 9 11 1011.6 1011.3 0.0
 
Date/Time
EDT
Temp
°C
App
Temp
°C
Dew
Point
Rel
Hum
%
Delta-T
°C
Wind Press
QNH
hPa
Press
MSL
hPa
Rain
since 9 am
mm
Dir
 
Spd
km/h
Gust
km/h
Spd
kts
Gust
kts
13/11:30pm 22.2 22.2 19.0 82 2.0 SSE 17 24 9 13 1011.8 1011.5 0.0
13/11:00pm 22.3 21.9 18.9 81 2.2 SSE 19 26 10 14 1011.9 1011.6 0.0
13/10:30pm 22.4 22.1 19.2 82 2.0 SSE 19 28 10 15 1012.0 1011.7 0.0
13/10:00pm 22.4 21.8 18.4 78 2.5 SSE 19 26 10 14 1012.4 1012.1 0.0
13/09:30pm 22.6 21.1 17.7 74 3.0 SSE 22 30 12 16 1012.3 1012.0 0.0
13/09:00pm 22.7 21.2 17.6 73 3.2 SSE 22 32 12 17 1012.2 1011.9 0.0
13/08:30pm 22.8 21.7 17.7 73 3.2 SSE 20 28 11 15 1011.9 1011.6 0.0
13/08:00pm 23.0 21.7 18.1 74 3.1 SSE 22 32 12 17 1011.8 1011.5 0.0
13/07:30pm 23.0 21.7 18.1 74 3.1 SSE 22 28 12 15 1011.6 1011.3 0.0
13/07:00pm 23.6 22.4 18.5 73 3.2 SSE 22 32 12 17 1011.4 1011.1 0.0
13/06:30pm 24.3 22.4 18.5 70 3.7 SSE 26 35 14 19 1011.1 1010.8 0.0
13/06:00pm 25.1 24.5 19.7 72 3.5 SSE 22 35 12 19 1011.0 1010.7 0.0
13/05:30pm 25.6 23.2 18.3 64 4.6 SSE 28 43 15 23 1011.2 1010.9 0.0
13/05:00pm 26.0 24.0 19.2 66 4.4 SSE 28 37 15 20 1011.2 1010.9 0.0
13/04:30pm 26.3 24.3 19.2 65 4.6 SSE 28 39 15 21 1011.3 1011.0 0.0
13/04:00pm 26.2 24.9 19.8 68 4.2 SSE 26 39 14 21 1011.5 1011.2 0.0
13/03:30pm 28.3 28.0 21.8 68 4.4 SSE 26 35 14 19 1011.7 1011.4 0.0
13/03:00pm 27.4 26.4 20.5 66 4.5 SSE 26 37 14 20 1011.9 1011.6 0.0
13/02:30pm 27.0 25.5 20.3 66 4.4 SE 28 37 15 20 1012.3 1012.0 0.0
13/02:00pm 26.6 25.1 20.2 68 4.2 SE 28 39 15 21 1012.5 1012.2 0.0
13/01:30pm 25.5 24.1 21.2 77 2.8 SE 30 37 16 20 1012.7 1012.4 0.0
13/01:00pm 25.0 24.9 21.5 81 2.3 SSE 24 35 13 19 1012.8 1012.5 0.0
13/12:30pm 25.5 25.9 22.4 83 2.1 SSE 24 35 13 19 1013.1 1012.8 0.0
13/12:00pm 25.0 25.9 22.7 87 1.6 SSE 22 33 12 18 1013.4 1013.0 0.0
13/11:30am 23.3 23.1 22.8 97 0.3 SSE 28 43 15 23 1013.5 1013.1 0.0
13/11:00am 25.4 25.3 22.3 83 2.1 SSE 26 37 14 20 1013.6 1013.2 0.0
13/10:30am 25.6 23.4 19.5 69 3.9 S 30 39 16 21 1013.5 1013.1 0.0
13/10:00am 25.3 23.6 19.9 72 3.5 SSE 28 35 15 19 1013.5 1013.1 0.0
13/09:30am 25.2 23.8 19.6 71 3.6 S 26 37 14 20 1013.4 1013.0 0.0
13/09:00am 24.4 24.9 21.1 82 2.2 S 20 30 11 16 1013.5 1013.1 0.0
13/08:30am 24.2 25.0 19.9 77 2.8 SSW 15 20 8 11 1013.4 1013.0 0.0
13/08:00am 23.0 24.2 20.7 87 1.5 SSW 15 24 8 13 1013.3 1012.9 0.0
13/07:30am 20.5 22.1 20.0 97 0.3 SW 11 15 6 8 1013.4 1013.0 0.0
13/07:00am 19.9 21.6 19.4 97 0.3 SW 9 19 5 10 1013.0 1012.7 0.0
13/06:30am 19.6 20.0 19.1 97 0.3 SW 15 20 8 11 1012.7 1012.4 0.0
13/06:00am 20.3 21.5 19.1 93 0.8 SW 11 17 6 9 1012.6 1012.3 0.0
13/05:30am 22.2 21.9 19.2 83 1.9 SSE 19 26 10 14 1012.7 1012.4 0.0
13/05:00am 22.4 21.7 18.6 79 2.4 SSE 20 32 11 17 1012.2 1011.9 0.0
13/04:30am 22.5 22.0 19.1 81 2.2 SSE 20 28 11 15 1012.3 1012.0 0.0
13/04:00am 22.5 21.8 18.7 79 2.4 SSE 20 28 11 15 1012.3 1012.0 0.0
13/03:30am 22.6 22.0 18.8 79 2.4 SSE 20 28 11 15 1012.4 1012.1 0.0
13/03:00am 22.4 22.0 18.8 80 2.3 SSE 19 30 10 16 1012.7 1012.4 0.0
13/02:30am 22.8 22.1 18.6 77 2.7 SSE 20 28 11 15 1012.9 1012.6 0.0
13/02:00am 22.8 22.6 19.4 81 2.2 SE 19 24 10 13 1013.3 1012.9 0.0
13/01:30am 22.7 22.3 18.9 79 2.4 SE 19 24 10 13 1013.7 1013.4 0.0
13/01:00am 22.6 23.3 20.5 88 1.4 SSE 17 20 9 11 1013.8 1013.5 0.0
13/12:30am 22.7 23.0 19.5 82 2.0 SE 17 24 9 13 1014.2 1013.9 0.0
13/12:00am 22.7 22.5 19.3 81 2.2 SSE 19 24 10 13 1014.3 1014.0 0.0
 
Date/Time
EDT
Temp
°C
App
Temp
°C
Dew
Point
Rel
Hum
%
Delta-T
°C
Wind Press
QNH
hPa
Press
MSL
hPa
Rain
since 9 am
mm
Dir
 
Spd
km/h
Gust
km/h
Spd
kts
Gust
kts
12/11:30pm 22.7 22.3 18.9 79 2.4 SSE 19 24 10 13 1014.5 1014.2 0.0
12/11:00pm 22.6 22.6 19.0 80 2.3 SE 17 26 9 14 1014.6 1014.3 0.0
12/10:30pm 22.5 22.3 18.5 78 2.5 SSE 17 28 9 15 1014.9 1014.6 0.0
12/10:00pm 22.9 22.0 18.2 75 2.9 SSE 20 32 11 17 1015.0 1014.7 0.0
12/09:30pm 22.7 21.6 17.8 74 3.1 SSE 20 30 11 16 1015.1 1014.8 0.0
12/09:00pm 22.8 21.2 17.5 72 3.3 SSE 22 32 12 17 1014.9 1014.6 0.0
12/08:30pm 22.7 21.8 18.3 76 2.8 SSE 20 30 11 16 1014.7 1014.4 0.0
12/08:00pm 22.8 21.4 17.9 74 3.1 SSE 22 32 12 17 1014.5 1014.2 0.0
12/07:30pm 23.0 21.8 17.5 71 3.4 SSE 20 30 11 16 1014.4 1014.1 0.0
12/07:00pm 23.7 22.3 17.9 70 3.6 SSE 22 32 12 17 1014.3 1014.0 0.0
12/06:30pm 24.3 22.2 17.1 64 4.5 SSE 24 33 13 18 1014.2 1013.9 0.0
12/06:00pm 25.3 23.6 18.0 64 4.6 SSE 24 33 13 18 1014.1 1013.8 0.0
12/05:30pm 25.8 23.8 18.2 63 4.8 SSE 26 35 14 19 1013.9 1013.6 0.0
12/05:00pm 26.5 25.1 18.9 63 4.9 SSE 24 37 13 20 1013.9 1013.6 0.0
12/04:30pm 26.4 24.1 17.5 58 5.6 SSE 26 37 14 20 1014.1 1013.8 0.0
12/04:00pm 27.4 25.8 18.4 58 5.8 SSE 24 32 13 17 1014.0 1013.7 0.0
12/03:30pm 27.9 26.5 18.9 58 5.8 SSE 24 33 13 18 1014.1 1013.8 0.0
12/03:00pm 27.9 26.3 18.3 56 6.1 SSE 24 33 13 18 1014.2 1013.9 0.0
12/02:30pm 28.2 26.7 19.4 59 5.7 SSE 26 37 14 20 1014.3 1014.0 0.0
12/02:00pm 27.0 25.0 19.1 62 5.1 SSE 28 39 15 21 1014.4 1014.1 0.0
12/01:30pm 27.4 25.6 18.7 59 5.6 SE 26 35 14 19 1014.5 1014.2 0.0
12/01:00pm 28.5 27.1 19.7 59 5.7 SSE 26 35 14 19 1014.7 1014.4 0.0
12/12:30pm 28.0 26.7 19.8 61 5.4 SSE 26 33 14 18 1014.8 1014.5 0.0
12/12:00pm 28.0 27.4 20.6 64 4.9 SSE 24 35 13 19 1015.0 1014.7 0.0
12/11:30am 28.3 27.7 20.6 63 5.1 SSE 24 32 13 17 1015.1 1014.8 0.0
12/11:00am 28.0 27.8 20.6 64 4.9 SSE 22 33 12 18 1015.3 1015.0 0.0
12/10:30am 25.2 24.5 19.6 71 3.6 SSE 22 33 12 18 1015.2 1014.9 0.0
12/10:00am 27.2 27.7 21.2 69 4.0 SE 20 28 11 15 1015.2 1014.9 0.0
12/09:30am 25.8 25.6 19.7 69 4.0 SSE 20 28 11 15 1015.1 1014.8 0.0
12/09:00am 26.6 26.1 20.0 67 4.3 SE 22 30 12 16 1015.1 1014.8 0.0
12/08:30am 26.3 27.4 21.3 74 3.3 SSE 17 24 9 13 1015.0 1014.7 0.0
12/08:00am 24.5 25.1 20.2 77 2.8 SSE 17 26 9 14 1014.8 1014.5 0.0
12/07:30am 21.6 23.8 21.1 97 0.3 SSW 11 19 6 10 1014.6 1014.3 0.0
12/07:00am 20.1 22.0 19.8 98 0.2 SSW 9 11 5 6 1014.5 1014.2 0.0
12/06:30am 19.5 20.4 19.2 98 0.2 SW 13 15 7 8 1014.4 1014.1 0.0
12/06:00am 19.8 20.7 19.3 97 0.3 WSW 13 17 7 9 1014.3 1014.0 0.0
12/05:30am 19.7 21.3 19.2 97 0.3 SW 9 13 5 7 1013.9 1013.6 0.0
12/05:00am 19.9 21.2 19.4 97 0.3 SW 11 15 6 8 1013.6 1013.2 0.0
12/04:30am 19.8 20.7 19.3 97 0.3 SW 13 19 7 10 1013.6 1013.2 0.0
12/04:00am 19.7 21.0 19.2 97 0.3 SW 11 15 6 8 1013.7 1013.4 0.0
12/03:30am 19.8 21.1 19.3 97 0.3 WSW 11 15 6 8 1013.9 1013.6 0.0
12/03:00am 20.2 21.3 19.7 97 0.3 SW 13 19 7 10 1013.9 1013.6 0.0
12/02:30am 20.5 21.5 18.6 89 1.2 SW 11 15 6 8 1014.1 1013.8 0.0
12/02:00am 21.6 22.2 18.6 83 1.9 SSE 13 17 7 9 1014.2 1013.9 0.0
12/01:30am 22.0 22.8 19.0 83 1.9 SE 13 19 7 10 1014.4 1014.1 0.0
12/01:00am 22.2 23.2 19.4 84 1.8 SE 13 19 7 10 1014.7 1014.4 0.0
12/12:30am 22.4 23.0 19.4 83 1.9 SE 15 20 8 11 1014.8 1014.5 0.0
12/12:00am 22.2 22.8 18.6 80 2.3 SE 13 17 7 9 1014.9 1014.6 0.0

Other Formats:

Comma delimited format used in spreadsheet applications
http://www.bom.gov.au/fwo/IDN60801/IDN60801.94598.axf

JavaScript Object Notation format (JSON) in row-major order
http://www.bom.gov.au/fwo/IDN60801/IDN60801.94598.json